Aviation Digital Data Service (ADDS)

Output produced by METARs form (1658 UTC 30 October 2020)
found at http://www.aviationweather.gov/metar/data/
 
KVLD 301653Z VRB04KT 10SM CLR 18/09 A3007 RMK AO2 SLP189 T01830094
KVLD 301120Z 3012/3112 35005KT P6SM SKC